Ana Sayfa
METAR-TAF:

METAR-TAF

Havaalanları :

Colmar, Fransa

Enlem: 48-06-37N, Boylam: 7-21-33E, yükseklik: 191 m

Güncel hava durumu gözlemi

Rapor saat 07:00 UTC de 19 dakika önce yapıldı.
Rüzgar batıdan 26 kt ve 38 kt'a kadar ani rüzgarlar
Sıcaklık 10°C
Nem 57%
Basınç 994 hPa
Görüş mesafesi 10 km veya daha fazla
1800 ft yükseklikte az bulutlu

METAR: LFGA 140700Z AUTO 26026G38KT 9999 FEW018 10/02 Q0994

Saat: 08:19 (07:19 UTC)


TAF: eksik

4.000'den fazla havaalanı için hava durumu gözlemleri ve tahminleri (METAR ve TAF raporları).

Kullanılabilir istasyonlar harita üzerinde sarı ve kırmızı noktalarla gösterilir.

İstasyonun adını görmek için fareyi noktanın üzerinde gezdirin.

Sonrasında hava gözlem ve tahminlerini görmek için tıklayın.

Haritayı değiştirmek için: yaklaştırmak için siyah artı işaretli yeşil düğmeye ve uzaklaştırmak için de eksi işaretli düğmeye hızla tıklayın; bitişik haritalar için yeşil okları kullanın.


METAR-TAF: